N817MC KVNY-KLGB
Flight info
| Callsign | N817MC |
|---|---|
| Flight time | N/A |
| Altitude | 9000 |
| Route | TWINE V518 KIMMO V459 SLI |
| Aircraft | SF50/L-VGDW/C |
Departure
| Time | 2026-05-04 01:39 |
|---|---|
| Airport | Van Nuys Airport (KVNY) |
Arrival
| Time | N/A |
|---|---|
| Airport | Long Beach International Airport (KLGB) |
| Time | Latitude | Longitude | Altitude | Speed | Heading |
|---|---|---|---|---|---|
| 2026-05-04 01:21 | 34.20838 | -118.48767 | 805 ft | 0 kts | 0° |
| 2026-05-04 01:25 | 34.20848 | -118.48766 | 805 ft | 2 kts | 9° |
| 2026-05-04 01:25 | 34.20851 | -118.48765 | 805 ft | 2 kts | 9° |
| 2026-05-04 01:26 | 34.20864 | -118.48777 | 805 ft | 0 kts | 254° |
| 2026-05-04 01:26 | 34.20863 | -118.48780 | 805 ft | 0 kts | 266° |
| 2026-05-04 01:28 | 34.20863 | -118.48785 | 805 ft | 0 kts | 266° |
| 2026-05-04 01:29 | 34.20924 | -118.48829 | 805 ft | 19 kts | 355° |
| 2026-05-04 01:29 | 34.21084 | -118.48844 | 805 ft | 26 kts | 355° |
| 2026-05-04 01:29 | 34.21246 | -118.48859 | 805 ft | 21 kts | 355° |
| 2026-05-04 01:29 | 34.21390 | -118.48873 | 805 ft | 22 kts | 355° |
| 2026-05-04 01:30 | 34.21535 | -118.48887 | 805 ft | 20 kts | 355° |
| 2026-05-04 01:30 | 34.21654 | -118.48919 | 805 ft | 17 kts | 342° |
| 2026-05-04 01:30 | 34.21765 | -118.48940 | 805 ft | 14 kts | 353° |
| 2026-05-04 01:30 | 34.21856 | -118.48948 | 805 ft | 14 kts | 355° |
| 2026-05-04 01:31 | 34.21883 | -118.48954 | 805 ft | 0 kts | 324° |
| 2026-05-04 01:38 | 34.21887 | -118.48969 | 805 ft | 7 kts | 272° |
| 2026-05-04 01:38 | 34.21888 | -118.49030 | 805 ft | 7 kts | 272° |
| 2026-05-04 01:38 | 34.21887 | -118.49072 | 805 ft | 4 kts | 267° |
| 2026-05-04 01:38 | 34.21837 | -118.49114 | 805 ft | 30 kts | 175° |
| 2026-05-04 01:39 | 34.21412 | -118.49074 | 805 ft | 92 kts | 175° |
| 2026-05-04 01:39 | 34.20654 | -118.49020 | 1052 ft | 125 kts | 177° |
| 2026-05-04 01:39 | 34.19742 | -118.49007 | 1686 ft | 132 kts | 179° |
| 2026-05-04 01:39 | 34.18809 | -118.48724 | 2179 ft | 159 kts | 143° |
| 2026-05-04 01:40 | 34.18171 | -118.47665 | 3069 ft | 142 kts | 126° |
| 2026-05-04 01:40 | 34.17691 | -118.46650 | 3745 ft | 148 kts | 122° |
| 2026-05-04 01:40 | 34.17421 | -118.45441 | 4408 ft | 142 kts | 102° |
| 2026-05-04 01:40 | 34.17257 | -118.44303 | 5101 ft | 145 kts | 102° |
| 2026-05-04 01:41 | 34.17071 | -118.43003 | 5416 ft | 170 kts | 101° |
| 2026-05-04 01:41 | 34.16864 | -118.41535 | 5905 ft | 180 kts | 102° |
| 2026-05-04 01:41 | 34.16655 | -118.40017 | 6455 ft | 187 kts | 102° |
| 2026-05-04 01:41 | 34.16440 | -118.38448 | 7001 ft | 190 kts | 104° |
| 2026-05-04 01:42 | 34.16226 | -118.36873 | 7550 ft | 191 kts | 103° |
| 2026-05-04 01:42 | 34.16011 | -118.35280 | 8050 ft | 193 kts | 103° |
| 2026-05-04 01:42 | 34.15826 | -118.33694 | 8522 ft | 195 kts | 97° |
| 2026-05-04 01:42 | 34.15796 | -118.32018 | 8982 ft | 199 kts | 94° |
| 2026-05-04 01:43 | 34.15749 | -118.30275 | 9021 ft | 223 kts | 96° |
| 2026-05-04 01:43 | 34.15403 | -118.28387 | 9032 ft | 238 kts | 118° |
| 2026-05-04 01:43 | 34.14472 | -118.26689 | 9025 ft | 244 kts | 137° |
| 2026-05-04 01:43 | 34.13114 | -118.25500 | 9025 ft | 241 kts | 157° |
| 2026-05-04 01:44 | 34.11589 | -118.24643 | 9023 ft | 241 kts | 158° |
| 2026-05-04 01:44 | 34.10076 | -118.23769 | 9024 ft | 241 kts | 158° |
| 2026-05-04 01:44 | 34.08569 | -118.22889 | 9020 ft | 241 kts | 158° |
| 2026-05-04 01:44 | 34.07052 | -118.22011 | 9022 ft | 242 kts | 158° |
| 2026-05-04 01:45 | 34.05523 | -118.21130 | 9028 ft | 242 kts | 158° |
| 2026-05-04 01:45 | 34.04008 | -118.20322 | 9020 ft | 239 kts | 166° |
| 2026-05-04 01:45 | 34.00767 | -118.20511 | 9018 ft | 235 kts | 191° |
| 2026-05-04 01:46 | 33.99152 | -118.20823 | 9021 ft | 235 kts | 191° |
| 2026-05-04 01:46 | 33.97533 | -118.21136 | 9019 ft | 235 kts | 191° |
| 2026-05-04 01:46 | 33.95905 | -118.21452 | 9021 ft | 244 kts | 191° |
| 2026-05-04 01:46 | 33.94179 | -118.21787 | 9032 ft | 255 kts | 191° |
| 2026-05-04 01:47 | 33.92403 | -118.22134 | 8946 ft | 263 kts | 191° |
| 2026-05-04 01:47 | 33.90579 | -118.22495 | 8696 ft | 267 kts | 191° |
| 2026-05-04 01:47 | 33.88737 | -118.22860 | 8434 ft | 269 kts | 191° |
| 2026-05-04 01:47 | 33.86915 | -118.23223 | 8185 ft | 269 kts | 191° |
| 2026-05-04 01:48 | 33.85074 | -118.23590 | 7944 ft | 267 kts | 191° |
| 2026-05-04 01:48 | 33.83238 | -118.23956 | 7690 ft | 268 kts | 191° |
| 2026-05-04 01:48 | 33.81399 | -118.24319 | 7443 ft | 267 kts | 191° |
| 2026-05-04 01:48 | 33.79565 | -118.24674 | 7202 ft | 267 kts | 192° |
| 2026-05-04 01:49 | 33.77723 | -118.25026 | 7034 ft | 266 kts | 192° |
| 2026-05-04 01:49 | 33.75897 | -118.25370 | 7029 ft | 267 kts | 191° |
| 2026-05-04 01:49 | 33.74056 | -118.25717 | 7030 ft | 266 kts | 192° |
| 2026-05-04 01:49 | 33.72223 | -118.26056 | 7029 ft | 266 kts | 191° |
| 2026-05-04 01:50 | 33.70370 | -118.25903 | 6958 ft | 265 kts | 168° |
| 2026-05-04 01:50 | 33.68794 | -118.24980 | 5628 ft | 260 kts | 144° |
| 2026-05-04 01:50 | 33.67520 | -118.23430 | 4110 ft | 259 kts | 133° |
| 2026-05-04 01:50 | 33.66371 | -118.21788 | 3066 ft | 245 kts | 131° |
| 2026-05-04 01:51 | 33.65398 | -118.20351 | 3009 ft | 201 kts | 131° |
| 2026-05-04 01:51 | 33.64558 | -118.19082 | 3009 ft | 203 kts | 131° |
| 2026-05-04 01:51 | 33.63607 | -118.17666 | 3029 ft | 231 kts | 131° |
| 2026-05-04 01:51 | 33.62541 | -118.16103 | 3010 ft | 252 kts | 131° |
| 2026-05-04 01:52 | 33.61401 | -118.14435 | 3010 ft | 262 kts | 131° |
| 2026-05-04 01:52 | 33.60248 | -118.12747 | 3011 ft | 262 kts | 131° |
| 2026-05-04 01:52 | 33.59096 | -118.11026 | 3004 ft | 264 kts | 127° |
| 2026-05-04 01:52 | 33.58435 | -118.08984 | 3013 ft | 266 kts | 98° |
| 2026-05-04 01:53 | 33.58660 | -118.06797 | 3019 ft | 267 kts | 69° |
| 2026-05-04 01:53 | 33.59698 | -118.05035 | 3008 ft | 263 kts | 40° |
| 2026-05-04 01:53 | 33.61291 | -118.04023 | 3019 ft | 259 kts | 17° |
| 2026-05-04 01:53 | 33.63008 | -118.03381 | 3022 ft | 257 kts | 14° |
| 2026-05-04 01:54 | 33.64727 | -118.02767 | 3022 ft | 258 kts | 14° |
| 2026-05-04 01:54 | 33.66458 | -118.02142 | 2993 ft | 259 kts | 14° |
| 2026-05-04 01:54 | 33.68191 | -118.01523 | 2995 ft | 258 kts | 14° |
| 2026-05-04 01:54 | 33.69892 | -118.01447 | 2929 ft | 241 kts | 340° |
| 2026-05-04 01:55 | 33.71292 | -118.02477 | 2650 ft | 236 kts | 314° |
| 2026-05-04 01:55 | 33.72420 | -118.03835 | 2743 ft | 224 kts | 312° |
| 2026-05-04 01:55 | 33.73521 | -118.05196 | 2345 ft | 234 kts | 313° |
| 2026-05-04 01:55 | 33.74679 | -118.06590 | 2125 ft | 237 kts | 312° |
| 2026-05-04 01:56 | 33.75788 | -118.07955 | 2315 ft | 220 kts | 311° |
| 2026-05-04 01:56 | 33.76894 | -118.09321 | 1879 ft | 238 kts | 311° |
| 2026-05-04 01:56 | 33.77975 | -118.10599 | 1478 ft | 204 kts | 314° |
| 2026-05-04 01:56 | 33.78947 | -118.11730 | 993 ft | 183 kts | 312° |
| 2026-05-04 01:57 | 33.79788 | -118.12716 | 669 ft | 146 kts | 313° |